Time;durP1;ratioP1;P1;durP2;ratioP2;P2;SDS_P1;SDS_P2;PMS_P1;PMS_P2;Temp;Humidity;BMP_temperature;BMP_pressure;BME280_temperature;BME280_humidity;BME280_pressure;Samples;Min_cycle;Max_cycle;Signal;HPM_P1;HPM_P2
2024/04/06 00:00:28;;;;;;;4.85;1.88;;;16.90;65.20;;;;;;5031715;28;20102;-58
2024/04/06 00:03:12;;;;;;;4.93;1.77;;;16.90;65.20;;;;;;5030868;28;20047;-58
2024/04/06 00:05:56;;;;;;;1.65;0.90;;;16.90;65.20;;;;;;5033015;28;20094;-59
2024/04/06 00:08:41;;;;;;;3.10;1.10;;;16.90;65.30;;;;;;5032009;28;20052;-59
2024/04/06 00:11:26;;;;;;;5.55;1.98;;;16.90;65.40;;;;;;5031648;28;20052;-59
2024/04/06 00:14:12;;;;;;;2.25;1.30;;;16.90;65.40;;;;;;5033083;28;20103;-59
2024/04/06 00:16:57;;;;;;;3.85;1.30;;;16.90;65.50;;;;;;5032886;28;20130;-59
2024/04/06 00:19:42;;;;;;;2.67;1.23;;;16.90;65.50;;;;;;5031448;28;20550;-59
2024/04/06 00:22:26;;;;;;;3.67;1.33;;;17.00;65.70;;;;;;5032198;28;20114;-59
2024/04/06 00:25:13;;;;;;;2.72;1.15;;;16.90;65.60;;;;;;5026156;28;20283;-59
2024/04/06 00:27:59;;;;;;;4.07;1.00;;;16.90;65.60;;;;;;5010314;28;20558;-60
2024/04/06 00:30:43;;;;;;;4.80;2.00;;;16.90;65.60;;;;;;5032368;28;20499;-59
2024/04/06 00:33:28;;;;;;;3.85;1.80;;;16.90;65.70;;;;;;5028365;28;20052;-60
2024/04/06 00:36:13;;;;;;;3.88;1.05;;;16.90;65.70;;;;;;5041306;28;20085;-59
2024/04/06 00:38:58;;;;;;;2.33;0.95;;;16.90;65.70;;;;;;5031911;28;20573;-58
2024/04/06 00:41:43;;;;;;;5.22;1.20;;;16.90;65.80;;;;;;5017787;28;20125;-59
2024/04/06 00:44:28;;;;;;;2.97;1.67;;;16.90;65.80;;;;;;5034227;28;20052;-60
2024/04/06 00:47:13;;;;;;;3.22;1.05;;;16.90;65.80;;;;;;5017424;28;20130;-60
2024/04/06 00:49:57;;;;;;;2.88;1.20;;;16.90;65.80;;;;;;5023342;28;20415;-60
2024/04/06 00:52:43;;;;;;;1.70;1.20;;;16.90;65.80;;;;;;5031366;28;20069;-60
2024/04/06 00:55:28;;;;;;;3.85;1.48;;;16.90;65.80;;;;;;5032821;28;20462;-60
2024/04/06 00:58:17;;;;;;;2.90;1.05;;;16.90;65.90;;;;;;5034833;28;20732;-60
2024/04/06 01:01:05;;;;;;;3.72;1.60;;;16.80;65.70;;;;;;5015766;28;20044;-60
2024/04/06 01:03:50;;;;;;;5.20;1.48;;;16.80;65.70;;;;;;5029339;28;20592;-60
2024/04/06 01:06:34;;;;;;;3.65;1.30;;;16.90;65.90;;;;;;5031130;28;20126;-59
2024/04/06 01:09:19;;;;;;;3.80;1.00;;;16.80;65.80;;;;;;5035035;28;20024;-60
2024/04/06 01:12:04;;;;;;;3.30;1.42;;;16.80;65.80;;;;;;5036381;28;20091;-59
2024/04/06 01:14:49;;;;;;;2.88;1.10;;;16.80;65.80;;;;;;5032876;28;20128;-59
2024/04/06 01:17:33;;;;;;;1.88;1.20;;;16.80;65.80;;;;;;5035599;28;20060;-59
2024/04/06 01:20:20;;;;;;;4.15;1.40;;;16.80;65.90;;;;;;5037183;28;20105;-58
2024/04/06 01:23:05;;;;;;;3.53;1.58;;;16.80;65.90;;;;;;5020338;28;20039;-60
2024/04/06 01:25:50;;;;;;;2.80;1.30;;;16.80;66.00;;;;;;5032708;28;20118;-60
2024/04/06 01:28:36;;;;;;;3.42;1.45;;;16.80;66.00;;;;;;5021073;28;20064;-59
2024/04/06 01:31:20;;;;;;;3.35;1.73;;;16.80;66.00;;;;;;5033506;28;20206;-59
2024/04/06 01:34:09;;;;;;;2.22;1.17;;;16.80;66.00;;;;;;5044853;28;20442;-60
2024/04/06 01:36:54;;;;;;;4.45;1.38;;;16.80;66.10;;;;;;5035513;28;20229;-59
2024/04/06 01:39:38;;;;;;;1.77;1.27;;;16.80;66.10;;;;;;5034842;28;20040;-60
2024/04/06 01:42:23;;;;;;;2.78;1.25;;;16.80;66.10;;;;;;5034419;28;20109;-59
2024/04/06 01:45:08;;;;;;;3.50;1.17;;;16.80;66.10;;;;;;5036086;28;20106;-60
2024/04/06 01:47:53;;;;;;;2.63;1.17;;;16.70;66.00;;;;;;5045102;28;20113;-59
2024/04/06 01:50:39;;;;;;;3.70;1.77;;;16.70;66.00;;;;;;5024922;28;20525;-60
2024/04/06 01:53:24;;;;;;;3.33;1.65;;;16.80;66.20;;;;;;5023239;28;20048;-59
2024/04/06 01:56:09;;;;;;;3.08;1.40;;;16.70;66.00;;;;;;5038801;28;20036;-60
2024/04/06 01:58:54;;;;;;;2.85;1.13;;;16.70;66.00;;;;;;5039406;28;20075;-60
2024/04/06 02:01:39;;;;;;;2.85;1.45;;;16.70;66.10;;;;;;5035986;28;20036;-64
2024/04/06 02:04:24;;;;;;;3.75;1.50;;;16.70;66.00;;;;;;5032926;28;20147;-58
2024/04/06 02:07:08;;;;;;;3.33;1.40;;;16.70;66.10;;;;;;5039595;28;20040;-60
2024/04/06 02:09:53;;;;;;;2.47;1.02;;;16.70;66.10;;;;;;5036321;28;20040;-60
2024/04/06 02:12:38;;;;;;;3.53;1.38;;;16.70;66.10;;;;;;5038349;28;20130;-60
2024/04/06 02:15:23;;;;;;;2.50;1.23;;;16.70;66.10;;;;;;5033288;28;20454;-60
2024/04/06 02:18:08;;;;;;;2.05;1.33;;;16.70;66.10;;;;;;5027353;28;20083;-60
2024/04/06 02:20:53;;;;;;;2.38;1.33;;;16.70;66.20;;;;;;5034418;28;20040;-60
2024/04/06 02:23:38;;;;;;;2.72;1.20;;;16.70;66.20;;;;;;5036004;28;20075;-60
2024/04/06 02:26:23;;;;;;;3.25;1.52;;;16.60;66.60;;;;;;5029651;28;20048;-62
2024/04/06 02:29:07;;;;;;;1.77;1.42;;;16.60;66.10;;;;;;5037610;28;20431;-60
2024/04/06 02:31:52;;;;;;;4.20;1.30;;;16.60;66.10;;;;;;5035240;28;20110;-60
2024/04/06 02:34:36;;;;;;;3.60;1.23;;;16.60;66.10;;;;;;5029669;28;20546;-59
2024/04/06 02:37:21;;;;;;;3.30;1.25;;;16.60;66.10;;;;;;5035376;28;20059;-60
2024/04/06 02:40:08;;;;;;;3.15;1.77;;;16.60;66.10;;;;;;5032473;28;20056;-60
2024/04/06 02:42:53;;;;;;;2.95;1.40;;;16.60;66.10;;;;;;5033262;28;20134;-60
2024/04/06 02:45:39;;;;;;;1.70;1.15;;;16.60;66.10;;;;;;5034552;28;20063;-61
2024/04/06 02:48:24;;;;;;;4.72;2.17;;;16.60;66.10;;;;;;5029157;28;20602;-60
2024/04/06 02:51:09;;;;;;;2.13;1.20;;;16.60;66.10;;;;;;5035312;28;20056;-60
2024/04/06 02:53:54;;;;;;;2.67;1.73;;;16.60;66.10;;;;;;5033688;28;20036;-60
2024/04/06 02:56:39;;;;;;;3.50;1.30;;;16.60;66.10;;;;;;5033054;28;20459;-58
2024/04/06 02:59:26;;;;;;;3.72;1.50;;;16.60;66.10;;;;;;5030381;28;20048;-59
2024/04/06 03:02:11;;;;;;;2.92;1.13;;;16.50;66.00;;;;;;5034983;28;20098;-59
2024/04/06 03:04:56;;;;;;;3.92;2.03;;;16.50;65.90;;;;;;5036851;28;20043;-59
2024/04/06 03:07:41;;;;;;;3.60;1.58;;;16.50;66.00;;;;;;5036136;28;20091;-61
2024/04/06 03:10:30;;;;;;;2.20;1.55;;;16.50;65.90;;;;;;5035929;28;20055;-61
2024/04/06 03:13:14;;;;;;;4.05;1.73;;;16.50;66.00;;;;;;5035665;28;20052;-64
2024/04/06 03:16:00;;;;;;;3.72;1.67;;;16.50;65.90;;;;;;5037836;28;20048;-59
2024/04/06 03:18:45;;;;;;;2.25;1.20;;;16.50;65.90;;;;;;5034387;28;20231;-63
2024/04/06 03:21:30;;;;;;;2.30;1.40;;;16.50;65.90;;;;;;5032585;28;20049;-59
2024/04/06 03:24:15;;;;;;;3.08;1.75;;;16.50;65.90;;;;;;5021377;28;20513;-60
2024/04/06 03:27:00;;;;;;;2.97;1.50;;;16.50;65.90;;;;;;5035063;28;20089;-59
2024/04/06 03:29:45;;;;;;;4.88;1.90;;;16.50;65.90;;;;;;5006242;28;20056;-60
2024/04/06 03:32:30;;;;;;;4.63;1.40;;;16.50;65.90;;;;;;5016657;28;20295;-60
2024/04/06 03:35:16;;;;;;;2.25;1.40;;;16.40;65.70;;;;;;5030021;28;20120;-60
2024/04/06 03:38:01;;;;;;;3.28;1.20;;;16.40;65.80;;;;;;5036696;28;20473;-60
2024/04/06 03:40:46;;;;;;;6.05;1.73;;;16.40;65.80;;;;;;5035100;28;20048;-60
2024/04/06 03:43:30;;;;;;;3.05;1.70;;;16.30;65.60;;;;;;5034266;28;20064;-60
2024/04/06 03:46:15;;;;;;;2.08;1.88;;;16.40;65.80;;;;;;5036108;28;20124;-60
2024/04/06 03:49:00;;;;;;;5.38;1.70;;;16.40;65.80;;;;;;5033912;28;20418;-60
2024/04/06 03:51:45;;;;;;;4.55;1.63;;;16.30;65.70;;;;;;5034685;28;20060;-59
2024/04/06 03:54:30;;;;;;;3.63;1.60;;;16.30;65.70;;;;;;5030020;28;20075;-59
2024/04/06 03:57:15;;;;;;;2.72;1.40;;;16.30;65.70;;;;;;5038248;28;20321;-59
2024/04/06 04:00:00;;;;;;;3.05;1.20;;;16.30;65.70;;;;;;5025658;28;20031;-59
2024/04/06 04:02:45;;;;;;;3.28;1.67;;;16.30;65.70;;;;;;5030544;28;20036;-61
2024/04/06 04:05:30;;;;;;;2.78;1.48;;;16.30;65.70;;;;;;5030918;28;20090;-59
2024/04/06 04:08:15;;;;;;;3.72;1.48;;;16.30;65.70;;;;;;5025801;28;20059;-59
2024/04/06 04:11:00;;;;;;;5.07;1.60;;;16.30;65.70;;;;;;5030261;28;20114;-58
2024/04/06 04:13:44;;;;;;;2.78;1.50;;;16.20;65.50;;;;;;5031439;28;20402;-60
2024/04/06 04:16:29;;;;;;;1.90;1.33;;;16.20;65.50;;;;;;5029099;28;20083;-59
2024/04/06 04:19:14;;;;;;;2.50;1.40;;;16.20;65.50;;;;;;5031071;28;20040;-60
2024/04/06 04:21:58;;;;;;;3.05;1.52;;;16.20;65.60;;;;;;5025523;28;20051;-60
2024/04/06 04:24:43;;;;;;;3.80;1.42;;;16.20;65.60;;;;;;5026072;28;20054;-59
2024/04/06 04:27:28;;;;;;;1.95;1.77;;;16.20;65.50;;;;;;5028487;28;20469;-59
2024/04/06 04:30:15;;;;;;;1.65;1.40;;;16.20;65.50;;;;;;5033367;28;20043;-59
2024/04/06 04:33:00;;;;;;;3.20;2.15;;;16.20;65.60;;;;;;5025522;28;20040;-60
2024/04/06 04:35:44;;;;;;;1.95;1.23;;;16.20;65.60;;;;;;5025997;28;20465;-61
2024/04/06 04:38:30;;;;;;;2.88;1.27;;;16.20;65.70;;;;;;5017001;28;20035;-60
2024/04/06 04:41:14;;;;;;;1.63;1.30;;;16.20;65.70;;;;;;5032071;28;20083;-59
2024/04/06 04:43:59;;;;;;;3.10;1.48;;;16.10;65.50;;;;;;5025903;28;20167;-60
2024/04/06 04:46:44;;;;;;;2.45;1.13;;;16.20;65.70;;;;;;5024683;28;20052;-60
2024/04/06 04:49:29;;;;;;;3.22;1.25;;;16.20;65.80;;;;;;5032429;28;20314;-61
2024/04/06 04:52:15;;;;;;;1.88;1.33;;;16.20;65.80;;;;;;5030790;28;20044;-59
2024/04/06 04:54:59;;;;;;;3.15;1.52;;;16.20;65.80;;;;;;5031588;28;20516;-59
2024/04/06 04:57:44;;;;;;;2.42;1.35;;;16.20;65.80;;;;;;5038663;28;20035;-60
2024/04/06 05:00:30;;;;;;;3.22;1.63;;;16.20;65.80;;;;;;5020514;28;20623;-59
2024/04/06 05:03:16;;;;;;;2.72;1.77;;;16.20;65.80;;;;;;5036007;28;20098;-60
2024/04/06 05:06:01;;;;;;;3.70;1.55;;;16.20;65.80;;;;;;5015319;28;20076;-59
2024/04/06 05:08:48;;;;;;;2.25;1.45;;;16.20;65.80;;;;;;5035826;28;20304;-59
2024/04/06 05:11:36;;;;;;;3.58;1.77;;;16.20;65.80;;;;;;5035950;28;20040;-59
2024/04/06 05:14:20;;;;;;;2.55;1.77;;;16.20;65.90;;;;;;5016124;28;20096;-60
2024/04/06 05:17:05;;;;;;;3.83;1.90;;;16.20;65.90;;;;;;4990185;28;20036;-60
2024/04/06 05:19:50;;;;;;;3.33;1.50;;;16.20;65.90;;;;;;5008620;28;20045;-60
2024/04/06 05:22:35;;;;;;;1.88;1.55;;;16.20;65.90;;;;;;4995567;28;20041;-58
2024/04/06 05:25:19;;;;;;;4.82;1.63;;;16.30;66.10;;;;;;4993289;28;20044;-61
2024/04/06 05:28:04;;;;;;;3.35;1.60;;;16.30;66.10;;;;;;4995352;28;20112;-59
2024/04/06 05:30:50;;;;;;;4.43;2.45;;;16.30;66.10;;;;;;4987961;28;20610;-60
2024/04/06 05:33:35;;;;;;;4.15;1.50;;;16.30;66.20;;;;;;4990928;28;20049;-59
2024/04/06 05:36:19;;;;;;;5.18;2.10;;;16.30;66.10;;;;;;5010158;28;20053;-60
2024/04/06 05:39:05;;;;;;;4.60;2.30;;;16.30;66.20;;;;;;4994256;28;20045;-60
2024/04/06 05:41:50;;;;;;;2.63;1.70;;;16.30;66.20;;;;;;4993599;28;20452;-60
2024/04/06 05:44:34;;;;;;;3.17;1.83;;;16.30;66.20;;;;;;5003962;28;20770;-60
2024/04/06 05:47:18;;;;;;;5.70;1.95;;;16.30;66.10;;;;;;4995602;28;20618;-59
2024/04/06 05:50:05;;;;;;;2.45;1.58;;;16.40;66.30;;;;;;4997228;28;20680;-60
2024/04/06 05:52:50;;;;;;;3.58;1.90;;;16.40;66.30;;;;;;4994044;28;20044;-60
2024/04/06 05:55:34;;;;;;;2.85;2.17;;;16.40;66.20;;;;;;4993414;28;20037;-60
2024/04/06 05:58:19;;;;;;;4.00;1.90;;;16.40;66.20;;;;;;5004347;28;20160;-61
2024/04/06 06:01:04;;;;;;;2.78;1.63;;;16.50;66.40;;;;;;4989341;28;20072;-60
2024/04/06 06:03:48;;;;;;;2.53;2.05;;;16.50;66.30;;;;;;4994047;28;20119;-60
2024/04/06 06:06:37;;;;;;;10.25;3.65;;;16.50;66.20;;;;;;5003196;28;20241;-64
2024/04/06 06:09:22;;;;;;;3.50;1.90;;;16.60;66.30;;;;;;4996845;28;20053;-59
2024/04/06 06:12:07;;;;;;;7.82;2.47;;;16.60;66.20;;;;;;4993832;28;20116;-59
2024/04/06 06:14:52;;;;;;;4.10;2.45;;;16.70;66.30;;;;;;5030119;28;20061;-60
2024/04/06 06:17:37;;;;;;;4.88;1.90;;;16.80;66.40;;;;;;5019211;28;20044;-59
2024/04/06 06:20:21;;;;;;;3.90;2.05;;;16.80;66.30;;;;;;5040269;28;20102;-60
2024/04/06 06:23:06;;;;;;;4.53;2.65;;;17.00;66.50;;;;;;5013439;28;20132;-60
2024/04/06 06:25:51;;;;;;;4.65;2.10;;;17.00;66.40;;;;;;5023175;28;20035;-60
2024/04/06 06:28:35;;;;;;;3.22;1.67;;;17.10;66.40;;;;;;5043362;28;20035;-59
2024/04/06 06:31:20;;;;;;;5.13;2.17;;;17.20;66.40;;;;;;5012716;28;20471;-60
2024/04/06 06:34:05;;;;;;;5.22;2.50;;;17.30;66.50;;;;;;5033433;28;20090;-60
2024/04/06 06:36:49;;;;;;;3.33;1.88;;;17.30;66.40;;;;;;5041123;28;22542;-59
2024/04/06 06:39:34;;;;;;;6.00;2.17;;;17.40;66.50;;;;;;5038595;28;20036;-59
2024/04/06 06:42:19;;;;;;;4.30;2.80;;;17.40;66.40;;;;;;5033753;28;20111;-59
2024/04/06 06:45:08;;;;;;;4.15;2.38;;;17.50;66.40;;;;;;5035377;28;20047;-60
2024/04/06 06:47:52;;;;;;;4.47;2.22;;;17.60;66.50;;;;;;5042590;28;20109;-59
2024/04/06 06:50:38;;;;;;;4.05;2.10;;;17.60;66.40;;;;;;5045629;28;20139;-59
2024/04/06 06:53:23;;;;;;;4.22;2.30;;;17.60;66.20;;;;;;5010988;28;20144;-61
2024/04/06 06:56:07;;;;;;;4.45;2.17;;;17.60;66.20;;;;;;5038861;28;20107;-59
2024/04/06 06:58:53;;;;;;;3.47;1.95;;;17.70;66.20;;;;;;5024139;28;20633;-59
2024/04/06 07:01:38;;;;;;;6.22;2.72;;;17.70;66.20;;;;;;5029215;28;20114;-58
2024/04/06 07:04:23;;;;;;;5.43;2.35;;;17.70;66.10;;;;;;5041305;28;20500;-60
2024/04/06 07:07:08;;;;;;;5.78;3.10;;;17.80;66.20;;;;;;5026790;28;20255;-60
2024/04/06 07:09:53;;;;;;;8.50;3.35;;;17.80;66.10;;;;;;5031225;28;20088;-59
2024/04/06 07:12:38;;;;;;;4.50;2.10;;;17.80;66.10;;;;;;5038712;28;20062;-59
2024/04/06 07:15:22;;;;;;;5.47;2.10;;;17.80;66.00;;;;;;5035636;28;20051;-60
2024/04/06 07:18:07;;;;;;;4.28;2.00;;;17.80;66.00;;;;;;5028708;28;20032;-59
2024/04/06 07:20:52;;;;;;;4.95;2.53;;;17.80;65.90;;;;;;5033086;28;20136;-64
2024/04/06 07:23:37;;;;;;;6.00;2.33;;;17.80;65.80;;;;;;5035139;28;20047;-60
2024/04/06 07:26:24;;;;;;;6.88;3.00;;;17.80;65.80;;;;;;5021606;28;20047;-60
2024/04/06 07:29:09;;;;;;;6.88;3.78;;;17.90;65.90;;;;;;5026364;28;20443;-59
2024/04/06 07:31:53;;;;;;;5.03;2.25;;;17.90;65.80;;;;;;5023971;28;20548;-60
2024/04/06 07:34:38;;;;;;;5.30;2.88;;;17.90;65.80;;;;;;5032679;28;20087;-54
2024/04/06 07:37:23;;;;;;;6.90;3.25;;;17.90;65.80;;;;;;5036474;28;20064;-60
2024/04/06 07:40:08;;;;;;;6.43;2.40;;;17.90;65.80;;;;;;5010095;28;20111;-69
2024/04/06 07:42:53;;;;;;;4.30;1.95;;;17.90;65.80;;;;;;5029423;28;20028;-60
2024/04/06 07:45:37;;;;;;;7.93;3.92;;;18.00;66.00;;;;;;5034565;28;20078;-59
2024/04/06 07:48:23;;;;;;;9.63;2.53;;;17.90;65.80;;;;;;5038311;28;20344;-59
2024/04/06 07:51:07;;;;;;;6.40;2.75;;;18.00;65.90;;;;;;5025495;28;20055;-60
2024/04/06 07:53:52;;;;;;;8.35;3.08;;;18.00;65.90;;;;;;5032821;28;20451;-59
2024/04/06 07:56:37;;;;;;;10.02;3.55;;;18.10;66.20;;;;;;5030565;28;20199;-60
2024/04/06 07:59:22;;;;;;;6.60;2.00;;;18.10;66.00;;;;;;5041514;28;20914;-61
2024/04/06 08:02:07;;;;;;;6.10;2.58;;;18.10;65.90;;;;;;5032134;28;20028;-59
2024/04/06 08:04:55;;;;;;;6.85;2.85;;;18.20;66.00;;;;;;5016127;28;20514;-60
2024/04/06 08:07:40;;;;;;;7.20;2.97;;;18.20;66.00;;;;;;5033521;28;20489;-59
2024/04/06 08:10:25;;;;;;;6.90;2.60;;;18.20;66.40;;;;;;5032294;28;20040;-59
2024/04/06 08:13:14;;;;;;;5.38;2.65;;;18.20;65.80;;;;;;5036929;28;20047;-60
2024/04/06 08:15:59;;;;;;;8.57;4.15;;;18.30;65.90;;;;;;5027826;28;20098;-60
2024/04/06 08:18:43;;;;;;;9.65;2.67;;;18.30;65.90;;;;;;5031656;28;20409;-59
2024/04/06 08:21:28;;;;;;;4.70;2.70;;;18.40;66.00;;;;;;5032315;28;20055;-57
2024/04/06 08:24:13;;;;;;;5.90;3.22;;;18.40;65.90;;;;;;4998099;28;20167;-59
2024/04/06 08:26:58;;;;;;;7.50;3.60;;;18.50;65.90;;;;;;5033093;28;20047;-59
2024/04/06 08:29:42;;;;;;;5.25;3.10;;;18.50;65.80;;;;;;5040814;28;20403;-59
2024/04/06 08:32:29;;;;;;;7.30;3.67;;;18.60;65.80;;;;;;5017724;28;20533;-59
2024/04/06 08:35:16;;;;;;;8.25;3.78;;;18.60;65.60;;;;;;5032442;28;20094;-58
2024/04/06 08:38:01;;;;;;;7.78;4.60;;;18.70;65.60;;;;;;5026902;28;20060;-60
2024/04/06 08:40:47;;;;;;;9.32;3.88;;;18.80;65.70;;;;;;5039264;28;20032;-59
2024/04/06 08:43:36;;;;;;;6.22;3.67;;;18.80;65.60;;;;;;5020223;28;20328;-60
2024/04/06 08:46:24;;;;;;;7.82;3.92;;;18.80;65.50;;;;;;5046001;28;20183;-59
2024/04/06 08:49:12;;;;;;;8.23;3.40;;;18.80;65.40;;;;;;5029063;28;20557;-59
2024/04/06 08:51:59;;;;;;;6.72;3.22;;;18.90;65.40;;;;;;5027424;28;20052;-62
2024/04/06 08:54:43;;;;;;;7.68;3.38;;;18.90;65.40;;;;;;5033555;28;20040;-61
2024/04/06 08:57:28;;;;;;;8.02;3.05;;;19.00;65.50;;;;;;5030061;28;20056;-71
2024/04/06 09:00:16;;;;;;;6.78;3.10;;;19.00;65.40;;;;;;5033152;28;20900;-66
2024/04/06 09:03:01;;;;;;;7.13;2.88;;;19.00;65.40;;;;;;5023793;28;20565;-58
2024/04/06 09:05:46;;;;;;;7.78;3.00;;;19.00;65.30;;;;;;5015670;28;20063;-60
2024/04/06 09:08:37;;;;;;;9.00;3.40;;;19.10;65.50;;;;;;5032922;28;20143;-59
2024/04/06 09:11:21;;;;;;;7.53;3.10;;;19.00;65.30;;;;;;5028173;28;20044;-60
2024/04/06 09:14:06;;;;;;;8.07;3.70;;;19.10;65.40;;;;;;5027661;28;20354;-59
2024/04/06 09:16:54;;;;;;;9.52;3.22;;;19.10;65.30;;;;;;5024211;28;20604;-60
2024/04/06 09:19:39;;;;;;;6.72;2.55;;;19.30;65.40;;;;;;5033028;28;20048;-61
2024/04/06 09:22:23;;;;;;;7.43;3.05;;;19.40;65.30;;;;;;5022835;28;20064;-65
2024/04/06 09:25:08;;;;;;;8.68;2.80;;;19.60;65.30;;;;;;5030878;28;20110;-60
2024/04/06 09:27:53;;;;;;;9.25;2.70;;;19.70;65.10;;;;;;5032989;28;20457;-59
2024/04/06 09:30:43;;;;;;;6.28;3.58;;;19.90;65.10;;;;;;5033591;28;20368;-59
2024/04/06 09:33:31;;;;;;;7.82;2.60;;;20.10;65.00;;;;;;5027876;28;20513;-59
2024/04/06 09:36:16;;;;;;;10.73;2.95;;;20.20;64.80;;;;;;5032029;28;20079;-59
2024/04/06 09:39:04;;;;;;;5.43;2.35;;;20.30;64.60;;;;;;5015162;28;20044;-59
2024/04/06 09:41:51;;;;;;;8.10;3.58;;;20.40;64.40;;;;;;5036709;28;20086;-58
2024/04/06 09:44:36;;;;;;;7.43;3.08;;;20.50;64.30;;;;;;5034750;28;20052;-62
2024/04/06 09:47:23;;;;;;;6.88;2.45;;;20.50;64.00;;;;;;5034281;28;20233;-58
2024/04/06 09:50:09;;;;;;;6.55;2.63;;;20.60;63.90;;;;;;5031130;28;20531;-59
2024/04/06 09:52:55;;;;;;;5.60;2.28;;;20.60;63.80;;;;;;5042573;28;20370;-59
2024/04/06 09:55:42;;;;;;;5.38;1.95;;;20.60;63.70;;;;;;5030233;28;20502;-59
2024/04/06 09:58:29;;;;;;;7.03;2.92;;;20.70;63.80;;;;;;5038001;28;20672;-58
2024/04/06 10:01:17;;;;;;;7.28;2.47;;;20.80;63.80;;;;;;5036000;28;20064;-58
2024/04/06 10:04:02;;;;;;;6.95;2.65;;;20.90;63.70;;;;;;5030989;28;20055;-59
2024/04/06 10:06:54;;;;;;;8.50;2.90;;;21.00;63.60;;;;;;5018890;28;20055;-59
2024/04/06 10:09:39;;;;;;;5.33;2.33;;;21.10;63.40;;;;;;5034893;28;20086;-59
2024/04/06 10:12:39;;;;;;;5.13;1.77;;;21.30;63.40;;;;;;5037376;28;20390;-58
2024/04/06 10:15:27;;;;;;;6.47;2.33;;;21.40;63.80;;;;;;5036650;28;20366;-61
2024/04/06 10:18:13;;;;;;;7.50;2.45;;;21.50;63.30;;;;;;5037483;28;20082;-61
2024/04/06 10:21:10;;;;;;;7.30;2.13;;;21.50;63.10;;;;;;5043627;28;20074;-58
2024/04/06 10:23:55;;;;;;;8.10;2.13;;;21.60;63.00;;;;;;5028627;28;20546;-62
2024/04/06 10:26:53;;;;;;;7.88;2.47;;;21.70;63.00;;;;;;5032970;28;20056;-59
2024/04/06 10:29:38;;;;;;;5.95;2.33;;;21.80;62.80;;;;;;5036631;28;20052;-59
2024/04/06 10:32:24;;;;;;;5.82;2.15;;;21.90;62.80;;;;;;5032840;28;20060;-60
2024/04/06 10:35:09;;;;;;;5.38;1.77;;;22.00;62.60;;;;;;5039547;28;20067;-59
2024/04/06 10:37:55;;;;;;;7.88;2.33;;;22.20;62.60;;;;;;5044368;28;20028;-59
2024/04/06 10:40:40;;;;;;;7.38;1.77;;;22.20;62.30;;;;;;5035966;28;20060;-59
2024/04/06 10:43:25;;;;;;;6.13;2.00;;;22.30;62.10;;;;;;5036698;28;20084;-59
2024/04/06 10:46:11;;;;;;;5.70;2.13;;;22.40;62.10;;;;;;5035145;28;20826;-58
2024/04/06 10:48:56;;;;;;;7.30;3.08;;;22.40;62.00;;;;;;5037203;28;20047;-61
2024/04/06 10:51:41;;;;;;;9.70;2.63;;;22.20;61.50;;;;;;5040088;28;20549;-59
2024/04/06 10:54:26;;;;;;;9.10;2.67;;;22.20;61.40;;;;;;5034564;28;20558;-65
2024/04/06 10:57:11;;;;;;;8.68;3.10;;;22.10;61.10;;;;;;5037997;28;20059;-62
2024/04/06 10:59:57;;;;;;;6.15;2.13;;;22.00;61.00;;;;;;5023919;28;20246;-61
2024/04/06 11:02:43;;;;;;;6.88;1.92;;;21.90;60.90;;;;;;5038071;28;20048;-59
2024/04/06 11:05:29;;;;;;;7.15;2.30;;;21.90;61.00;;;;;;5033292;28;20071;-59
2024/04/06 11:08:14;;;;;;;9.82;2.50;;;22.00;61.00;;;;;;5032381;28;20372;-59
2024/04/06 11:10:59;;;;;;;6.10;2.28;;;22.20;61.00;;;;;;5035850;28;20518;-59
2024/04/06 11:13:44;;;;;;;8.15;2.25;;;22.20;60.70;;;;;;5037444;28;20067;-58
2024/04/06 11:16:28;;;;;;;6.03;2.80;;;22.40;60.90;;;;;;5037441;28;20110;-61
2024/04/06 11:19:16;;;;;;;7.15;2.22;;;22.50;60.90;;;;;;5035017;28;20055;-61
2024/04/06 11:22:05;;;;;;;9.13;2.95;;;22.50;60.70;;;;;;5035942;28;20036;-58
2024/04/06 11:24:51;;;;;;;11.35;3.22;;;22.60;60.60;;;;;;5036609;28;20388;-59
2024/04/06 11:27:36;;;;;;;8.02;2.10;;;22.80;60.90;;;;;;5032817;28;20399;-59
2024/04/06 11:30:22;;;;;;;8.27;2.67;;;22.90;60.90;;;;;;5037047;28;20088;-59
2024/04/06 11:33:06;;;;;;;9.95;2.47;;;23.00;61.50;;;;;;5039527;28;20048;-57
2024/04/06 11:35:52;;;;;;;7.72;3.10;;;23.10;61.00;;;;;;5036479;28;20052;-60
2024/04/06 11:38:37;;;;;;;11.45;3.20;;;23.20;61.00;;;;;;5040026;28;20509;-60
2024/04/06 11:41:22;;;;;;;7.50;2.92;;;23.30;61.10;;;;;;5018226;28;20056;-59
2024/04/06 11:44:06;;;;;;;12.73;6.15;;;23.40;61.10;;;;;;5036665;28;20328;-61
2024/04/06 11:46:52;;;;;;;34.97;20.17;;;23.50;61.20;;;;;;5036946;28;20071;-58
2024/04/06 11:49:36;;;;;;;55.85;36.10;;;23.60;61.20;;;;;;5028306;28;20052;-56
2024/04/06 11:52:21;;;;;;;52.25;35.08;;;23.80;61.40;;;;;;5031049;28;20127;-57
2024/04/06 11:55:06;;;;;;;49.38;34.78;;;23.90;61.50;;;;;;5032493;28;20161;-58
2024/04/06 11:57:50;;;;;;;51.13;36.03;;;24.00;61.60;;;;;;5036253;28;20117;-58
2024/04/06 12:00:35;;;;;;;49.58;35.40;;;24.10;61.60;;;;;;5028764;28;20128;-58
2024/04/06 12:03:20;;;;;;;28.25;14.82;;;24.10;61.40;;;;;;5008755;28;20044;-60
2024/04/06 12:06:09;;;;;;;33.38;21.55;;;24.10;61.10;;;;;;5040976;28;20075;-59
2024/04/06 12:08:55;;;;;;;29.52;17.77;;;24.10;60.80;;;;;;5029923;28;20082;-58
2024/04/06 12:11:39;;;;;;;29.05;15.57;;;24.10;60.70;;;;;;5035292;28;20070;-58
2024/04/06 12:14:24;;;;;;;25.25;16.90;;;24.30;60.90;;;;;;5034401;28;20052;-58
2024/04/06 12:17:14;;;;;;;21.20;11.57;;;24.40;60.80;;;;;;5035344;28;20489;-59
2024/04/06 12:19:59;;;;;;;22.17;13.85;;;24.50;60.70;;;;;;5031536;28;20055;-58
2024/04/06 12:22:44;;;;;;;20.77;11.95;;;24.50;60.30;;;;;;5032646;28;20601;-60
2024/04/06 12:25:29;;;;;;;21.08;11.10;;;24.60;60.30;;;;;;5030147;28;20120;-58
2024/04/06 12:28:15;;;;;;;19.00;11.75;;;24.70;60.30;;;;;;5030880;28;20048;-58
2024/04/06 12:30:59;;;;;;;19.48;10.30;;;24.70;60.10;;;;;;5033835;28;20105;-58
2024/04/06 12:33:44;;;;;;;17.15;10.20;;;24.80;60.10;;;;;;5033043;28;20572;-59
2024/04/06 12:36:28;;;;;;;19.23;10.48;;;24.80;60.00;;;;;;5029019;28;20051;-58
2024/04/06 12:39:13;;;;;;;14.27;8.07;;;24.80;59.80;;;;;;5031089;28;20113;-58
2024/04/06 12:42:00;;;;;;;15.60;8.70;;;24.90;59.80;;;;;;5035924;28;20040;-61
2024/04/06 12:44:45;;;;;;;14.55;7.63;;;24.90;59.60;;;;;;5018995;28;20136;-58
2024/04/06 12:47:30;;;;;;;18.92;8.75;;;24.90;59.40;;;;;;5032068;28;20087;-58
2024/04/06 12:50:15;;;;;;;18.83;8.45;;;25.00;59.50;;;;;;5036203;28;20048;-59
2024/04/06 12:53:02;;;;;;;15.82;7.50;;;25.10;59.50;;;;;;5022882;28;20043;-58
2024/04/06 12:55:48;;;;;;;17.13;6.22;;;25.10;59.30;;;;;;5035456;28;20047;-58
2024/04/06 12:58:32;;;;;;;11.52;5.60;;;25.10;59.00;;;;;;5025727;28;20334;-58
2024/04/06 13:01:17;;;;;;;9.80;5.00;;;25.10;58.70;;;;;;5037271;28;20467;-59
2024/04/06 13:04:02;;;;;;;15.27;5.95;;;25.10;58.60;;;;;;5032331;28;20048;-61
2024/04/06 13:06:47;;;;;;;13.68;5.47;;;25.10;58.40;;;;;;5037195;28;20422;-59
2024/04/06 13:09:33;;;;;;;9.05;4.90;;;25.00;58.20;;;;;;5036841;28;20477;-59
2024/04/06 13:12:21;;;;;;;12.50;5.32;;;24.90;57.90;;;;;;5035664;28;20056;-58
2024/04/06 13:15:08;;;;;;;13.50;5.30;;;24.90;57.90;;;;;;5027188;28;20143;-59
2024/04/06 13:17:54;;;;;;;11.95;4.93;;;24.80;57.60;;;;;;5028078;28;20568;-59
2024/04/06 13:20:41;;;;;;;10.00;3.47;;;24.80;57.60;;;;;;5030890;28;20059;-58
2024/04/06 13:23:26;;;;;;;9.98;4.82;;;24.70;57.50;;;;;;5042821;28;20052;-58
2024/04/06 13:26:11;;;;;;;8.82;3.85;;;24.60;57.40;;;;;;5028757;28;20660;-57
2024/04/06 13:28:56;;;;;;;12.50;4.00;;;24.60;57.40;;;;;;5036276;28;20132;-61
2024/04/06 13:31:41;;;;;;;8.55;4.05;;;24.50;57.30;;;;;;5034400;28;20455;-59
2024/04/06 13:34:25;;;;;;;10.77;4.22;;;24.50;57.30;;;;;;5035445;28;20098;-58
2024/04/06 13:37:11;;;;;;;9.35;3.55;;;24.50;57.30;;;;;;5041815;28;20075;-57
2024/04/06 13:39:55;;;;;;;8.07;3.40;;;24.50;57.20;;;;;;5038802;28;20470;-59
2024/04/06 13:42:42;;;;;;;11.18;3.90;;;24.50;57.20;;;;;;5035886;28;20149;-58
2024/04/06 13:45:27;;;;;;;10.93;3.45;;;24.50;57.10;;;;;;5037057;28;20537;-59
2024/04/06 13:48:15;;;;;;;12.65;4.38;;;24.50;57.10;;;;;;5034286;28;20511;-59
2024/04/06 13:51:00;;;;;;;11.65;4.05;;;24.50;57.10;;;;;;5026216;28;20436;-58
2024/04/06 13:53:45;;;;;;;11.63;4.07;;;24.50;57.00;;;;;;5033988;28;20114;-58
2024/04/06 13:56:29;;;;;;;8.95;3.85;;;24.50;57.10;;;;;;5021311;28;20349;-58
2024/04/06 13:59:14;;;;;;;9.77;3.78;;;24.50;57.10;;;;;;5040047;28;20056;-59
2024/04/06 14:02:00;;;;;;;9.57;3.67;;;24.60;57.20;;;;;;5013116;28;20514;-58
2024/04/06 14:04:45;;;;;;;11.30;4.30;;;24.70;57.40;;;;;;5039718;28;20127;-58
2024/04/06 14:07:30;;;;;;;10.05;4.00;;;24.70;57.30;;;;;;5039173;28;20071;-57
2024/04/06 14:10:14;;;;;;;10.13;4.03;;;24.80;57.20;;;;;;5030910;28;20542;-58
2024/04/06 14:12:59;;;;;;;9.10;3.72;;;24.80;57.00;;;;;;5034529;28;20074;-58
2024/04/06 14:15:44;;;;;;;9.85;3.03;;;24.90;57.10;;;;;;5040758;28;20059;-57
2024/04/06 14:18:29;;;;;;;11.75;3.85;;;24.90;57.00;;;;;;5039996;28;20069;-59